createdAt,value
2018-03-19T00:00:48.477Z,77.74
2018-03-19T00:03:16.832Z,78.42
2018-03-19T00:05:45.240Z,77.65
2018-03-19T00:08:13.571Z,77.86
2018-03-19T00:10:41.893Z,78.09
2018-03-19T00:13:11.028Z,77.90
2018-03-19T00:15:39.360Z,77.86
2018-03-19T00:18:07.767Z,78.05
2018-03-19T00:20:37.004Z,77.53
2018-03-19T00:23:05.332Z,77.91
2018-03-19T00:25:34.545Z,77.74
2018-03-19T00:28:02.872Z,77.67
2018-03-19T00:30:31.204Z,77.45
2018-03-19T00:32:59.825Z,77.40
2018-03-19T00:35:28.148Z,77.82
2018-03-19T00:37:56.468Z,77.87
2018-03-19T00:40:24.825Z,78.00
2018-03-19T00:42:53.176Z,78.18
2018-03-19T00:45:21.518Z,78.10
2018-03-19T00:47:49.889Z,77.55
2018-03-19T00:50:18.423Z,77.60
2018-03-19T00:52:47.546Z,77.07
2018-03-19T00:55:16.208Z,77.08
2018-03-19T00:57:45.302Z,77.63
2018-03-19T01:00:14.404Z,78.17
2018-03-19T01:02:43.532Z,77.90
2018-03-19T01:05:11.869Z,77.57
2018-03-19T01:07:40.216Z,76.86
2018-03-19T01:10:08.564Z,78.45
2018-03-19T01:12:36.957Z,78.08
2018-03-19T01:15:05.338Z,77.36
2018-03-19T01:17:33.689Z,77.81
2018-03-19T01:20:02.026Z,77.16
2018-03-19T01:22:30.408Z,77.98
2018-03-19T01:24:59.224Z,77.28
2018-03-19T01:27:27.552Z,77.70
2018-03-19T01:29:55.920Z,77.30
2018-03-19T01:32:24.262Z,76.74
2018-03-19T01:34:52.695Z,77.13
2018-03-19T01:37:21.044Z,77.33
2018-03-19T01:39:49.685Z,76.32
2018-03-19T01:42:18.813Z,75.95
2018-03-19T01:44:47.134Z,76.18
2018-03-19T01:47:15.460Z,76.77
2018-03-19T01:49:43.828Z,77.01
2018-03-19T01:52:12.918Z,77.03
2018-03-19T01:54:42.000Z,76.97
2018-03-19T01:57:10.373Z,77.02
2018-03-19T01:59:38.712Z,76.52
2018-03-19T02:02:07.050Z,77.97
2018-03-19T02:04:36.194Z,77.34
2018-03-19T02:07:04.524Z,77.19
2018-03-19T02:09:32.859Z,76.97
2018-03-19T02:12:01.261Z,77.28
2018-03-19T02:14:29.612Z,77.63
2018-03-19T02:16:57.950Z,77.65
2018-03-19T02:19:26.296Z,76.59
2018-03-19T02:21:54.624Z,76.57
2018-03-19T02:24:23.148Z,77.40
2018-03-19T02:26:51.465Z,77.95
2018-03-19T02:29:20.693Z,77.74
2018-03-19T02:31:49.040Z,77.03
2018-03-19T02:34:17.369Z,77.23
2018-03-19T02:36:45.980Z,77.88
2018-03-19T02:39:14.533Z,77.29
2018-03-19T02:41:43.143Z,76.29
2018-03-19T02:44:11.509Z,76.28
2018-03-19T02:46:39.887Z,77.70
2018-03-19T02:49:08.334Z,78.34
2018-03-19T02:51:36.934Z,78.77
2018-03-19T02:54:05.313Z,77.92
2018-03-19T02:56:33.838Z,77.75
2018-03-19T02:59:02.439Z,77.24
2018-03-19T03:01:31.002Z,77.00
2018-03-19T03:04:00.049Z,77.65
2018-03-19T03:06:28.648Z,78.05
2018-03-19T03:08:58.056Z,78.47
2018-03-19T03:11:28.495Z,77.76
2018-03-19T03:13:56.861Z,77.02
2018-03-19T03:16:25.347Z,77.53
2018-03-19T03:18:53.735Z,78.11
2018-03-19T03:21:22.077Z,77.53
2018-03-19T03:23:50.772Z,77.97
2018-03-19T03:26:19.150Z,79.08
2018-03-19T03:28:47.544Z,79.32
2018-03-19T03:31:16.331Z,78.68
2018-03-19T03:33:44.769Z,78.22
2018-03-19T03:36:13.163Z,77.90
2018-03-19T03:38:42.470Z,77.34
2018-03-19T03:41:12.294Z,77.14
2018-03-19T03:43:42.252Z,77.96
2018-03-19T03:46:10.873Z,78.64
2018-03-19T03:48:39.638Z,78.23
2018-03-19T03:51:08.008Z,77.54
2018-03-19T03:53:36.421Z,77.27
2018-03-19T03:56:04.746Z,77.87
2018-03-19T03:58:33.211Z,77.43
2018-03-19T04:01:01.577Z,77.09
2018-03-19T04:03:30.412Z,77.50
2018-03-19T04:05:59.520Z,76.38
2018-03-19T04:08:27.853Z,76.16
2018-03-19T04:10:56.215Z,76.46
2018-03-19T04:13:24.531Z,76.65
2018-03-19T04:15:52.852Z,77.13
2018-03-19T04:18:21.272Z,77.33
2018-03-19T04:20:49.604Z,77.01
2018-03-19T04:23:17.956Z,76.40
2018-03-19T04:25:46.537Z,76.40
2018-03-19T04:28:15.647Z,76.97
2018-03-19T04:30:43.972Z,76.82
2018-03-19T04:33:12.300Z,76.85
2018-03-19T04:35:40.647Z,76.60
2018-03-19T04:38:08.988Z,76.17
2018-03-19T04:40:37.457Z,76.41
2018-03-19T04:43:05.812Z,76.56
2018-03-19T04:45:34.103Z,76.91
2018-03-19T04:48:02.500Z,77.17
2018-03-19T04:50:30.839Z,76.94
2018-03-19T04:52:59.160Z,76.34
2018-03-19T04:55:27.605Z,76.41
2018-03-19T04:57:55.920Z,76.48
2018-03-19T05:00:24.228Z,76.54
2018-03-19T05:02:52.599Z,76.46
2018-03-19T05:05:20.917Z,77.04
2018-03-19T05:07:49.692Z,77.88
2018-03-19T05:10:18.800Z,78.22
2018-03-19T05:12:47.893Z,77.45
2018-03-19T05:15:17.015Z,77.48
2018-03-19T05:17:45.408Z,77.20
2018-03-19T05:20:13.724Z,77.32
2018-03-19T05:22:42.100Z,77.08
2018-03-19T05:25:10.415Z,77.42
2018-03-19T05:27:38.732Z,77.78
2018-03-19T05:30:07.396Z,77.64
2018-03-19T05:32:36.175Z,77.29
2018-03-19T05:35:04.491Z,77.81
2018-03-19T05:37:32.856Z,77.49
2018-03-19T05:40:01.207Z,77.49
2018-03-19T05:42:29.597Z,77.93
2018-03-19T05:44:57.907Z,77.31
2018-03-19T05:47:26.223Z,77.41
2018-03-19T05:49:55.328Z,76.83
2018-03-19T05:52:23.647Z,76.67
2018-03-19T05:54:51.999Z,76.86
2018-03-19T05:57:20.319Z,77.13
2018-03-19T05:59:48.663Z,77.23
2018-03-19T06:02:16.976Z,76.26
2018-03-19T06:04:45.812Z,75.45
2018-03-19T06:07:14.128Z,75.50
2018-03-19T06:09:42.467Z,75.36
2018-03-19T06:12:10.854Z,75.55
2018-03-19T06:14:40.202Z,76.23
2018-03-19T06:17:08.572Z,75.83
2018-03-19T06:19:37.081Z,75.26
2018-03-19T06:22:06.282Z,75.68
2018-03-19T06:24:34.682Z,75.25
2018-03-19T06:27:03.129Z,74.86
2018-03-19T06:29:31.720Z,74.07
2018-03-19T06:32:00.219Z,74.29
2018-03-19T06:34:28.548Z,73.90
2018-03-19T06:36:56.899Z,73.75
2018-03-19T06:39:25.234Z,73.29
2018-03-19T06:41:54.396Z,72.89
2018-03-19T06:44:23.044Z,72.34
2018-03-19T06:46:51.391Z,71.92
2018-03-19T06:49:19.797Z,70.60
2018-03-19T06:51:48.555Z,70.04
2018-03-19T06:54:16.909Z,70.48
2018-03-19T06:56:45.265Z,69.99
2018-03-19T06:59:13.587Z,69.22
2018-03-19T07:01:41.960Z,68.67
2018-03-19T07:04:10.327Z,68.60
2018-03-19T07:06:39.167Z,67.69
2018-03-19T07:09:09.953Z,68.66
2018-03-19T07:11:38.281Z,67.22
2018-03-19T07:14:06.605Z,69.04
2018-03-19T07:16:35.069Z,68.45
2018-03-19T07:19:03.392Z,67.87
2018-03-19T07:21:32.102Z,68.05
2018-03-19T07:24:00.456Z,67.27
2018-03-19T07:26:29.544Z,65.51
2018-03-19T07:28:57.890Z,64.87
2018-03-19T07:31:26.199Z,64.62
2018-03-19T07:33:54.735Z,63.17
2018-03-19T07:36:23.293Z,61.48
2018-03-19T07:38:52.686Z,61.06
2018-03-19T07:41:21.327Z,60.97
2018-03-19T07:43:49.696Z,61.31
2018-03-19T07:46:18.008Z,61.33
2018-03-19T07:48:46.328Z,60.72
2018-03-19T07:51:14.729Z,59.99
2018-03-19T07:53:43.043Z,61.04
2018-03-19T07:56:11.431Z,61.45
2018-03-19T07:58:39.744Z,60.99
2018-03-19T08:01:08.394Z,60.23
2018-03-19T08:03:36.872Z,58.94
2018-03-19T08:06:05.225Z,59.28
2018-03-19T08:08:33.533Z,58.70
2018-03-19T08:11:01.900Z,57.17
2018-03-19T08:13:31.725Z,54.90
2018-03-19T08:16:01.045Z,53.17
2018-03-19T08:18:30.125Z,53.69
2018-03-19T08:20:59.232Z,53.39
2018-03-19T08:23:28.368Z,53.83
2018-03-19T08:25:56.936Z,52.75
2018-03-19T08:28:25.396Z,52.45
2018-03-19T08:30:53.701Z,51.89
2018-03-19T08:33:22.047Z,55.26
2018-03-19T08:35:51.112Z,53.74
2018-03-19T08:38:19.452Z,51.57
2018-03-19T08:40:47.820Z,52.78
2018-03-19T08:43:17.004Z,52.58
2018-03-19T08:45:45.320Z,52.56
2018-03-19T08:48:13.686Z,53.83
2018-03-19T08:50:42.011Z,52.96
2018-03-19T08:53:10.339Z,55.17
2018-03-19T08:55:38.704Z,56.29
2018-03-19T08:58:07.160Z,57.09
2018-03-19T09:00:35.474Z,55.58
2018-03-19T09:03:03.816Z,54.94
2018-03-19T09:05:32.925Z,53.25
2018-03-19T09:08:02.505Z,53.08
2018-03-19T09:10:30.836Z,52.43
2018-03-19T09:12:59.168Z,51.22
2018-03-19T09:15:28.284Z,50.71
2018-03-19T09:17:56.591Z,48.76
2018-03-19T09:20:24.988Z,46.69
2018-03-19T09:22:53.295Z,46.95
2018-03-19T09:25:21.618Z,49.86
2018-03-19T09:27:49.965Z,49.08
2018-03-19T09:30:18.322Z,48.29
2018-03-19T09:32:46.786Z,46.32
2018-03-19T09:35:15.158Z,46.61
2018-03-19T09:37:43.563Z,47.59
2018-03-19T09:40:12.081Z,47.05
2018-03-19T09:42:40.392Z,47.93
2018-03-19T09:45:08.717Z,47.36
2018-03-19T09:47:37.315Z,49.02
2018-03-19T09:50:06.057Z,49.62
2018-03-19T09:52:34.434Z,49.98
2018-03-19T09:55:03.205Z,49.47
2018-03-19T09:57:31.547Z,50.18
2018-03-19T10:00:00.403Z,48.27
2018-03-19T10:02:28.780Z,47.92
2018-03-19T10:04:57.099Z,49.72
2018-03-19T10:07:25.480Z,51.11
2018-03-19T10:09:53.816Z,53.64
2018-03-19T10:12:22.145Z,52.24
2018-03-19T10:14:50.516Z,50.25
2018-03-19T10:17:18.837Z,50.63
2018-03-19T10:19:47.154Z,49.80
2018-03-19T10:22:16.284Z,50.79
2018-03-19T10:24:44.609Z,49.09
2018-03-19T10:27:13.088Z,51.77
2018-03-19T10:29:41.636Z,52.22
2018-03-19T10:32:09.959Z,51.69
2018-03-19T10:34:38.280Z,52.28
2018-03-19T10:37:07.199Z,52.29
2018-03-19T10:39:35.516Z,54.21
2018-03-19T10:42:03.871Z,53.32
2018-03-19T10:44:32.270Z,54.47
2018-03-19T10:47:00.582Z,50.74
2018-03-19T10:49:28.960Z,50.70
2018-03-19T10:51:57.372Z,51.89
2018-03-19T10:54:25.678Z,50.59
2018-03-19T10:56:54.749Z,48.65
2018-03-19T10:59:23.080Z,48.19
2018-03-19T11:01:56.739Z,49.99
2018-03-19T11:04:25.104Z,52.35
2018-03-19T11:06:59.652Z,50.28
2018-03-19T11:09:30.335Z,52.03
2018-03-19T11:11:58.733Z,53.23
2018-03-19T11:14:26.976Z,53.28
2018-03-19T11:16:55.315Z,49.51
2018-03-19T11:19:23.629Z,49.02
2018-03-19T11:21:51.952Z,46.96
2018-03-19T11:24:20.308Z,46.06
2018-03-19T11:26:48.623Z,48.52
2018-03-19T11:29:17.700Z,49.88
2018-03-19T11:31:46.055Z,49.54
2018-03-19T11:34:14.367Z,52.11
2018-03-19T11:36:42.733Z,51.57
2018-03-19T11:39:11.232Z,49.34
2018-03-19T11:41:39.547Z,46.47
2018-03-19T11:44:07.870Z,45.77
2018-03-19T11:46:36.228Z,46.40
2018-03-19T11:49:04.548Z,43.43
2018-03-19T11:51:33.625Z,44.17
2018-03-19T11:54:02.002Z,44.17
2018-03-19T11:56:30.325Z,40.79
2018-03-19T11:58:58.964Z,38.46
2018-03-19T12:01:27.363Z,37.58
2018-03-19T12:03:55.781Z,39.13
2018-03-19T12:06:24.113Z,40.29
2018-03-19T12:08:52.473Z,40.84
2018-03-19T12:11:20.793Z,42.94
2018-03-19T12:13:49.655Z,43.72
2018-03-19T12:16:18.008Z,42.40
2018-03-19T12:18:46.344Z,42.18
2018-03-19T12:21:14.651Z,42.42
2018-03-19T12:23:43.601Z,44.15
2018-03-19T12:26:11.920Z,44.47
2018-03-19T12:28:40.230Z,43.23
2018-03-19T12:31:08.604Z,44.52
2018-03-19T12:33:36.918Z,45.47
2018-03-19T12:36:05.232Z,45.38
2018-03-19T12:38:33.584Z,45.34
2018-03-19T12:41:02.479Z,46.11
2018-03-19T12:43:30.797Z,46.39
2018-03-19T12:45:59.428Z,43.91
2018-03-19T12:48:28.500Z,45.17
2018-03-19T12:50:57.577Z,46.26
2018-03-19T12:53:25.945Z,48.01
2018-03-19T12:55:54.273Z,45.88
2018-03-19T12:58:22.593Z,45.60
2018-03-19T13:00:51.060Z,45.89
2018-03-19T13:03:19.124Z,47.51
2018-03-19T13:05:47.467Z,49.61
2018-03-19T13:08:15.831Z,49.90
2018-03-19T13:10:44.199Z,50.70
2018-03-19T13:13:12.881Z,50.68
2018-03-19T13:15:41.189Z,51.20
2018-03-19T13:18:10.269Z,47.98
2018-03-19T13:20:38.638Z,48.87
2018-03-19T13:23:06.961Z,51.68
2018-03-19T13:25:35.280Z,52.61
2018-03-19T13:28:03.651Z,54.58
2018-03-19T13:30:31.967Z,57.07
2018-03-19T13:33:00.280Z,62.10
2018-03-19T13:35:28.815Z,58.52
2018-03-19T13:37:57.124Z,58.68
2018-03-19T13:40:26.196Z,59.30
2018-03-19T13:42:54.547Z,56.50
2018-03-19T13:45:22.856Z,55.86
2018-03-19T13:47:51.264Z,56.70
2018-03-19T13:50:19.763Z,59.31
2018-03-19T13:52:48.109Z,56.93
2018-03-19T13:55:16.495Z,56.76
2018-03-19T13:57:45.568Z,57.39
2018-03-19T14:00:13.888Z,57.34
2018-03-19T14:02:42.386Z,57.46
2018-03-19T14:05:10.696Z,57.07
2018-03-19T14:07:39.014Z,59.23
2018-03-19T14:10:07.396Z,59.32
2018-03-19T14:12:35.709Z,59.59
2018-03-19T14:15:04.021Z,57.80
2018-03-19T14:17:32.703Z,60.79
2018-03-19T14:20:01.493Z,59.31
2018-03-19T14:22:31.452Z,60.02
2018-03-19T14:25:00.755Z,60.87
2018-03-19T14:27:29.268Z,60.41
2018-03-19T14:29:57.584Z,60.55
2018-03-19T14:32:25.889Z,61.94
2018-03-19T14:34:54.860Z,62.05
2018-03-19T14:37:23.276Z,62.96
2018-03-19T14:39:51.583Z,61.83
2018-03-19T14:42:19.939Z,62.39
2018-03-19T14:44:48.447Z,61.60
2018-03-19T14:47:16.763Z,61.59
2018-03-19T14:49:45.393Z,62.47
2018-03-19T14:52:15.223Z,62.08
2018-03-19T14:54:43.528Z,62.00
2018-03-19T14:57:13.115Z,62.92
2018-03-19T14:59:41.437Z,64.23
2018-03-19T15:02:10.261Z,65.26
2018-03-19T15:04:39.464Z,64.94
2018-03-19T15:07:07.786Z,66.14
2018-03-19T15:09:36.100Z,64.18
2018-03-19T15:12:04.464Z,65.83
2018-03-19T15:14:32.793Z,66.07
2018-03-19T15:17:01.876Z,66.59
2018-03-19T15:19:30.272Z,64.95
2018-03-19T15:21:58.596Z,64.64
2018-03-19T15:24:26.916Z,65.59
2018-03-19T15:26:56.058Z,65.83
2018-03-19T15:29:24.372Z,66.63
2018-03-19T15:31:52.700Z,66.05
2018-03-19T15:34:21.114Z,64.59
2018-03-19T15:36:49.428Z,65.22
2018-03-19T15:39:17.751Z,64.68
2018-03-19T15:41:46.208Z,64.73
2018-03-19T15:44:14.524Z,64.81
2018-03-19T15:46:42.939Z,65.63
2018-03-19T15:49:11.261Z,65.79
2018-03-19T15:51:39.649Z,65.39
2018-03-19T15:54:08.021Z,65.67
2018-03-19T15:56:36.333Z,65.24
2018-03-19T15:59:04.639Z,66.02
2018-03-19T16:01:33.768Z,65.84
2018-03-19T16:04:02.092Z,64.97
2018-03-19T16:06:30.591Z,65.58
2018-03-19T16:08:59.012Z,66.96
2018-03-19T16:11:27.320Z,66.00
2018-03-19T16:13:55.632Z,66.30
2018-03-19T16:16:24.004Z,65.00
2018-03-19T16:18:53.084Z,66.10
2018-03-19T16:21:21.396Z,65.18
2018-03-19T16:23:50.070Z,65.88
2018-03-19T16:26:19.208Z,65.96
2018-03-19T16:28:47.524Z,66.53
2018-03-19T16:31:16.197Z,65.89
2018-03-19T16:33:44.677Z,66.57
2018-03-19T16:36:12.996Z,67.31
2018-03-19T16:38:41.391Z,67.41
2018-03-19T16:41:09.792Z,66.51
2018-03-19T16:43:38.112Z,67.69
2018-03-19T16:46:06.472Z,67.86
2018-03-19T16:48:34.797Z,67.41
2018-03-19T16:51:03.498Z,65.87
2018-03-19T16:53:32.227Z,66.15
2018-03-19T16:56:00.544Z,65.91
2018-03-19T16:58:28.879Z,66.84
2018-03-19T17:00:57.640Z,66.45
2018-03-19T17:03:25.972Z,67.18
2018-03-19T17:05:54.884Z,67.62
2018-03-19T17:08:23.271Z,67.40
2018-03-19T17:10:51.598Z,67.65
2018-03-19T17:13:19.911Z,66.08
2018-03-19T17:15:48.281Z,66.97
2018-03-19T17:18:16.698Z,66.49
2018-03-19T17:20:45.429Z,66.35
2018-03-19T17:23:14.432Z,67.90
2018-03-19T17:25:43.504Z,66.52
2018-03-19T17:28:12.119Z,66.41
2018-03-19T17:30:40.560Z,66.72
2018-03-19T17:33:08.959Z,66.74
2018-03-19T17:35:37.292Z,65.82
2018-03-19T17:38:05.779Z,65.71
2018-03-19T17:40:34.112Z,65.71
2018-03-19T17:43:02.443Z,65.48
2018-03-19T17:45:30.828Z,65.95
2018-03-19T17:47:59.141Z,66.70
2018-03-19T17:50:28.088Z,65.39
2018-03-19T17:52:56.417Z,65.43
2018-03-19T17:55:25.512Z,65.14
2018-03-19T17:57:54.652Z,65.55
2018-03-19T18:00:23.827Z,65.35
2018-03-19T18:02:52.157Z,65.22
2018-03-19T18:05:20.533Z,65.74
2018-03-19T18:07:49.547Z,66.10
2018-03-19T18:10:18.744Z,66.25
2018-03-19T18:12:47.203Z,66.12
2018-03-19T18:15:19.712Z,67.13
2018-03-19T18:17:49.214Z,67.56
2018-03-19T18:20:18.273Z,66.63
2018-03-19T18:22:46.784Z,64.75
2018-03-19T18:25:15.139Z,65.32
2018-03-19T18:27:43.465Z,66.50
2018-03-19T18:30:12.199Z,65.42
2018-03-19T18:32:41.319Z,65.94
2018-03-19T18:35:10.120Z,66.47
2018-03-19T18:37:40.314Z,66.49
2018-03-19T18:40:08.773Z,66.86
2018-03-19T18:42:37.760Z,66.20
2018-03-19T18:45:06.960Z,66.05
2018-03-19T18:47:35.495Z,65.58
2018-03-19T18:50:04.681Z,65.75
2018-03-19T18:52:33.145Z,66.51
2018-03-19T18:55:01.478Z,66.89
2018-03-19T18:57:29.982Z,65.89
2018-03-19T18:59:58.424Z,66.23
2018-03-19T19:02:27.163Z,65.11
2018-03-19T19:04:55.778Z,65.56
2018-03-19T19:07:24.604Z,64.09
2018-03-19T19:09:52.932Z,63.96
2018-03-19T19:12:22.047Z,64.63
2018-03-19T19:14:50.568Z,64.41
2018-03-19T19:17:18.912Z,62.59
2018-03-19T19:19:50.049Z,62.46
2018-03-19T19:22:19.979Z,64.81
2018-03-19T19:24:48.652Z,63.38
2018-03-19T19:27:18.255Z,60.52
2018-03-19T19:29:47.352Z,60.25
2018-03-19T19:32:15.912Z,60.98
2018-03-19T19:34:44.896Z,61.33
2018-03-19T19:37:14.631Z,60.31
2018-03-19T19:39:43.607Z,60.42
2018-03-19T19:42:12.546Z,59.58
2018-03-19T19:44:42.352Z,59.83
2018-03-19T19:47:10.929Z,60.11
2018-03-19T19:49:41.200Z,58.98
2018-03-19T19:52:10.466Z,60.56
2018-03-19T19:54:39.561Z,60.48
2018-03-19T19:57:08.943Z,59.96
2018-03-19T19:59:37.529Z,60.39
2018-03-19T20:02:05.956Z,59.94
2018-03-19T20:04:34.281Z,58.99
2018-03-19T20:07:04.767Z,60.38
2018-03-19T20:09:33.285Z,60.43
2018-03-19T20:12:03.038Z,60.76
2018-03-19T20:14:31.639Z,60.06
2018-03-19T20:17:00.299Z,60.74
2018-03-19T20:19:29.272Z,60.24
2018-03-19T20:21:58.132Z,59.88
2018-03-19T20:24:26.515Z,60.72
2018-03-19T20:26:55.607Z,60.60
2018-03-19T20:29:24.740Z,61.38
2018-03-19T20:31:53.244Z,60.30
2018-03-19T20:34:21.597Z,59.76
2018-03-19T20:36:50.668Z,61.11
2018-03-19T20:39:18.996Z,60.55
2018-03-19T20:41:47.315Z,61.04
2018-03-19T20:44:15.689Z,60.74
2018-03-19T20:46:44.032Z,60.86
2018-03-19T20:49:12.415Z,61.16
2018-03-19T20:51:41.317Z,61.34
2018-03-19T20:54:09.948Z,61.30
2018-03-19T20:56:38.976Z,61.92
2018-03-19T20:59:07.348Z,61.45
2018-03-19T21:01:36.375Z,60.85
2018-03-19T21:04:04.796Z,61.97
2018-03-19T21:06:33.895Z,60.57
2018-03-19T21:09:02.840Z,60.53
2018-03-19T21:11:32.852Z,60.93
2018-03-19T21:14:01.661Z,60.75
2018-03-19T21:16:31.093Z,61.27
2018-03-19T21:19:00.009Z,60.77
2018-03-19T21:21:28.796Z,60.94
2018-03-19T21:23:57.132Z,60.53
2018-03-19T21:26:25.521Z,62.11
2018-03-19T21:28:54.680Z,61.30
2018-03-19T21:31:23.235Z,61.85
2018-03-19T21:33:51.772Z,61.96
2018-03-19T21:36:20.452Z,61.78
2018-03-19T21:38:49.148Z,62.58
2018-03-19T21:41:18.505Z,62.45
2018-03-19T21:43:47.738Z,61.42
2018-03-19T21:46:16.963Z,62.21
2018-03-19T21:48:45.295Z,61.77
2018-03-19T21:51:16.705Z,62.82
2018-03-19T21:53:45.335Z,64.15
2018-03-19T21:56:16.207Z,63.10
2018-03-19T21:58:46.540Z,62.54
2018-03-19T22:01:14.920Z,63.81
2018-03-19T22:03:43.999Z,62.81
2018-03-19T22:06:13.044Z,62.82
2018-03-19T22:08:41.451Z,62.88
2018-03-19T22:11:14.687Z,63.64
2018-03-19T22:13:43.144Z,62.47
2018-03-19T22:16:11.749Z,63.23
2018-03-19T22:18:40.072Z,63.04
2018-03-19T22:21:08.456Z,63.48
2018-03-19T22:23:36.772Z,63.57
2018-03-19T22:26:05.105Z,63.79
2018-03-19T22:28:33.480Z,63.59
2018-03-19T22:31:02.671Z,64.24
2018-03-19T22:33:30.996Z,64.26
2018-03-19T22:36:00.560Z,62.45
2018-03-19T22:38:29.120Z,62.56
2018-03-19T22:40:57.892Z,63.31
2018-03-19T22:43:27.011Z,63.94
2018-03-19T22:45:55.471Z,63.75
2018-03-19T22:48:24.524Z,64.17
2018-03-19T22:50:52.880Z,63.92
2018-03-19T22:53:21.547Z,64.44
2018-03-19T22:55:50.008Z,64.48
2018-03-19T22:58:18.337Z,65.33
2018-03-19T23:00:46.667Z,64.88
2018-03-19T23:03:15.119Z,65.48
2018-03-19T23:05:43.447Z,65.13
2018-03-19T23:08:12.540Z,63.82
2018-03-19T23:10:42.131Z,64.24
2018-03-19T23:13:10.461Z,64.71
2018-03-19T23:15:38.783Z,65.43
2018-03-19T23:18:07.911Z,65.46
2018-03-19T23:20:37.015Z,66.59
2018-03-19T23:23:05.383Z,65.88
2018-03-19T23:25:33.703Z,66.45
2018-03-19T23:28:02.025Z,67.13
2018-03-19T23:30:30.352Z,67.34
2018-03-19T23:32:58.699Z,67.21
2018-03-19T23:35:27.779Z,67.70
2018-03-19T23:37:57.256Z,67.86
2018-03-19T23:40:25.575Z,68.58
2018-03-19T23:42:53.899Z,68.13
2018-03-19T23:45:22.243Z,68.14
2018-03-19T23:47:50.565Z,68.26
2018-03-19T23:50:19.312Z,68.92
2018-03-19T23:52:47.748Z,68.62
2018-03-19T23:55:16.138Z,69.04
2018-03-19T23:57:45.145Z,69.63
